Time;durP1;ratioP1;P1;durP2;ratioP2;P2;SDS_P1;SDS_P2;PMS_P1;PMS_P2;Temp;Humidity;BMP_temperature;BMP_pressure;BME280_temperature;BME280_humidity;BME280_pressure;Samples;Min_cycle;Max_cycle;Signal;HPM_P1;HPM_P2
2022/10/03 00:01:36;;;;;;;38.00;28.33;;;;;;;-142.37;100.00;59669.53;5093961;28;20548;-65
2022/10/03 00:04:39;;;;;;;41.85;30.70;;;;;;;-142.37;100.00;59669.53;5094023;28;20020;-64
2022/10/03 00:07:22;;;;;;;37.55;28.80;;;;;;;-142.37;100.00;59669.53;5112445;28;20499;-64
2022/10/03 00:10:00;;;;;;;49.42;32.08;;;;;;;-142.37;100.00;59669.53;5112506;28;20020;-65
2022/10/03 00:13:07;;;;;;;42.20;31.30;;;;;;;-142.37;100.00;59669.53;5094171;28;20043;-64
2022/10/03 00:15:33;;;;;;;46.95;30.77;;;;;;;-142.37;100.00;59669.53;5107184;28;20112;-65
2022/10/03 00:18:49;;;;;;;45.20;30.73;;;;;;;-142.37;100.00;59669.53;5093984;28;20023;-64
2022/10/03 00:21:33;;;;;;;38.22;29.10;;;;;;;-142.37;100.00;59669.53;5056041;28;20051;-65
2022/10/03 00:24:41;;;;;;;41.42;29.17;;;;;;;-142.37;100.00;59669.53;5097879;28;20057;-65
2022/10/03 00:27:25;;;;;;;36.80;28.00;;;;;;;-142.37;100.00;59669.53;5116133;28;20514;-65
2022/10/03 00:30:15;;;;;;;40.70;29.08;;;;;;;-142.37;100.00;59669.53;5115967;28;20441;-64
2022/10/03 00:33:23;;;;;;;40.03;29.38;;;;;;;-142.37;100.00;59669.53;5084570;28;20070;-66
2022/10/03 00:36:11;;;;;;;36.53;28.38;;;;;;;-142.37;100.00;59669.53;5115946;28;20502;-65
2022/10/03 00:39:29;;;;;;;41.30;29.15;;;;;;;-142.37;100.00;59669.53;5116052;28;20077;-65
2022/10/03 00:42:40;;;;;;;39.80;30.02;;;;;;;-142.37;100.00;59669.53;5047205;28;20046;-64
2022/10/03 00:45:28;;;;;;;43.83;29.70;;;;;;;-142.37;100.00;59669.53;5097154;28;20030;-65
2022/10/03 00:48:27;;;;;;;50.35;32.42;;;;;;;-142.37;100.00;59669.53;5097601;28;20035;-65
2022/10/03 00:51:29;;;;;;;39.85;27.92;;;;;;;-142.37;100.00;59669.53;5097393;28;20091;-65
2022/10/03 00:54:33;;;;;;;48.10;30.48;;;;;;;-142.37;100.00;59669.53;5115105;28;20553;-65
2022/10/03 00:57:01;;;;;;;43.40;31.15;;;;;;;-142.37;100.00;59669.53;5096109;28;20032;-65
2022/10/03 00:59:38;;;;;;;52.50;31.88;;;;;;;-142.37;100.00;59669.53;5115564;28;20039;-66
2022/10/03 01:02:24;;;;;;;52.47;32.58;;;;;;;-142.37;100.00;59669.53;5115339;28;20080;-64
2022/10/03 01:05:22;;;;;;;53.53;33.58;;;;;;;-142.37;100.00;59669.53;5097079;28;20032;-64
2022/10/03 01:08:15;;;;;;;40.92;29.42;;;;;;;-142.37;100.00;59669.53;5097111;28;20024;-64
2022/10/03 01:10:53;;;;;;;48.67;32.28;;;;;;;-142.37;100.00;59669.53;5096684;28;20035;-66
2022/10/03 01:13:41;;;;;;;48.83;31.83;;;;;;;-142.37;100.00;59669.53;5114903;28;20031;-66
2022/10/03 01:16:20;;;;;;;42.80;31.48;;;;;;;-142.37;100.00;59669.53;5096726;28;20023;-63
2022/10/03 01:19:27;;;;;;;46.88;32.33;;;;;;;-142.37;100.00;59669.53;5115024;28;20032;-65
2022/10/03 01:22:02;;;;;;;42.72;29.50;;;;;;;-142.37;100.00;59669.53;5115155;28;20028;-66
2022/10/03 01:25:10;;;;;;;43.63;29.98;;;;;;;-142.37;100.00;59669.53;5096638;28;20028;-64
2022/10/03 01:30:21;;;;;;;45.75;30.10;;;;;;;-142.37;100.00;59669.53;5115118;28;20036;-65
2022/10/03 01:30:29;;;;;;;42.22;29.38;;;;;;;-142.37;100.00;59669.53;5114656;28;20039;-65
2022/10/03 01:33:02;;;;;;;48.33;31.90;;;;;;;-142.37;100.00;59669.53;5114680;28;20523;-64
2022/10/03 01:35:46;;;;;;;42.38;28.98;;;;;;;-142.37;100.00;59669.53;5114679;28;20027;-65
2022/10/03 01:38:26;;;;;;;42.30;30.83;;;;;;;-142.37;100.00;59669.53;5096437;28;20066;-64
2022/10/03 01:41:33;;;;;;;43.00;30.23;;;;;;;-142.37;100.00;59669.53;5096502;28;20030;-64
2022/10/03 01:44:23;;;;;;;45.05;31.60;;;;;;;-142.37;100.00;59669.53;5062585;28;20039;-68
2022/10/03 01:47:04;;;;;;;48.20;32.83;;;;;;;-142.37;100.00;59669.53;5096211;28;20028;-66
2022/10/03 01:50:00;;;;;;;62.15;36.28;;;;;;;-142.37;100.00;59669.53;5096362;28;20450;-64
2022/10/03 01:53:03;;;;;;;53.63;33.33;;;;;;;-142.37;100.00;59669.53;5085123;28;20092;-64
2022/10/03 01:55:36;;;;;;;49.78;32.63;;;;;;;-142.37;100.00;59669.53;5074527;28;20515;-66
2022/10/03 01:58:05;;;;;;;55.00;34.97;;;;;;;-142.37;100.00;59669.53;5072332;28;20181;-65
2022/10/03 02:00:57;;;;;;;47.08;32.85;;;;;;;-142.37;100.00;59669.53;5072105;28;20036;-64
2022/10/03 02:03:34;;;;;;;49.50;31.88;;;;;;;-142.37;100.00;59669.53;5072382;28;20021;-65
2022/10/03 02:06:16;;;;;;;54.67;34.42;;;;;;;-142.37;100.00;59669.53;5072323;28;20057;-65
2022/10/03 02:09:03;;;;;;;56.17;33.97;;;;;;;-142.37;100.00;59669.53;5072301;28;20420;-64
2022/10/03 02:11:52;;;;;;;47.67;31.58;;;;;;;-142.37;100.00;59669.53;5072465;28;20021;-64
2022/10/03 02:14:22;;;;;;;53.08;33.95;;;;;;;-142.37;100.00;59669.53;5072303;28;20032;-64
2022/10/03 02:17:24;;;;;;;56.47;34.47;;;;;;;-142.37;100.00;59669.53;5073691;28;20077;-65
2022/10/03 02:20:00;;;;;;;48.42;32.75;;;;;;;-142.37;100.00;59669.53;5048952;28;20048;-64
2022/10/03 02:22:41;;;;;;;45.80;31.45;;;;;;;-142.37;100.00;59669.53;5073452;28;20032;-65
2022/10/03 02:25:39;;;;;;;44.95;31.55;;;;;;;-142.37;100.00;59669.53;5072889;28;20028;-65
2022/10/03 02:28:32;;;;;;;46.08;31.13;;;;;;;-142.37;100.00;59669.53;5073270;28;20024;-64
2022/10/03 02:31:35;;;;;;;57.90;34.05;;;;;;;-142.37;100.00;59669.53;5071479;28;20035;-64
2022/10/03 02:34:22;;;;;;;46.47;31.73;;;;;;;-142.37;100.00;59669.53;5071879;28;20028;-66
2022/10/03 02:37:17;;;;;;;51.35;32.92;;;;;;;-142.37;100.00;59669.53;5071733;28;20033;-66
2022/10/03 02:40:16;;;;;;;50.58;31.45;;;;;;;-142.37;100.00;59669.53;5071350;28;20039;-65
2022/10/03 02:43:14;;;;;;;42.17;29.13;;;;;;;-142.37;100.00;59669.53;5072990;28;20074;-64
2022/10/03 02:45:43;;;;;;;48.40;30.63;;;;;;;-142.37;100.00;59669.53;5072444;28;20427;-65
2022/10/03 02:48:59;;;;;;;46.78;31.75;;;;;;;-142.37;100.00;59669.53;5071282;28;20021;-65
2022/10/03 02:51:34;;;;;;;48.67;31.63;;;;;;;-142.37;100.00;59669.53;4994365;28;20034;-64
2022/10/03 02:54:34;;;;;;;45.63;30.58;;;;;;;-142.37;100.00;59669.53;5059714;28;20138;-65
2022/10/03 02:57:15;;;;;;;42.03;30.05;;;;;;;-142.37;100.00;59669.53;5072309;28;20028;-65
2022/10/03 03:00:06;;;;;;;53.38;32.33;;;;;;;-142.37;100.00;59669.53;5071200;28;20041;-66
2022/10/03 03:03:08;;;;;;;55.97;33.97;;;;;;;-142.37;100.00;59669.53;5071083;28;20024;-65
2022/10/03 03:05:37;;;;;;;47.97;29.90;;;;;;;-142.37;100.00;59669.53;5071332;28;20439;-64
2022/10/03 03:08:27;;;;;;;49.75;31.50;;;;;;;-142.37;100.00;59669.53;5071095;28;20119;-65
2022/10/03 03:11:06;;;;;;;49.38;30.98;;;;;;;-142.37;100.00;59669.53;5072425;28;20024;-64
2022/10/03 03:14:00;;;;;;;47.38;31.30;;;;;;;-142.37;100.00;59669.53;5072463;28;20028;-65
2022/10/03 03:16:56;;;;;;;49.15;30.98;;;;;;;-142.37;100.00;59669.53;5071129;28;20106;-65
2022/10/03 03:19:25;;;;;;;49.95;31.95;;;;;;;-142.37;100.00;59669.53;5072126;28;20036;-64
2022/10/03 03:22:19;;;;;;;51.95;32.22;;;;;;;-142.37;100.00;59669.53;5072241;28;20039;-65
2022/10/03 03:25:15;;;;;;;55.83;33.00;;;;;;;-142.37;100.00;59669.53;5070816;28;20055;-66
2022/10/03 03:28:02;;;;;;;50.42;31.48;;;;;;;-142.37;100.00;59669.53;5070805;28;20373;-64
2022/10/03 03:30:39;;;;;;;46.15;30.65;;;;;;;-142.37;100.00;59669.53;5070991;28;20120;-64
2022/10/03 03:33:30;;;;;;;43.90;29.48;;;;;;;-142.37;100.00;59669.53;5070550;28;20511;-65
2022/10/03 03:36:21;;;;;;;48.15;31.45;;;;;;;-142.37;100.00;59669.53;5071881;28;20437;-66
2022/10/03 03:39:05;;;;;;;48.80;30.95;;;;;;;-142.37;100.00;59669.53;5071789;28;20032;-66
2022/10/03 03:41:55;;;;;;;47.20;29.98;;;;;;;-142.37;100.00;59669.53;5071968;28;20142;-64
2022/10/03 03:44:30;;;;;;;44.72;29.88;;;;;;;-142.37;100.00;59669.53;5071941;28;20500;-66
2022/10/03 03:47:42;;;;;;;47.08;29.98;;;;;;;-142.37;100.00;59669.53;5070748;28;20385;-65
2022/10/03 03:50:24;;;;;;;45.90;29.17;;;;;;;-142.37;100.00;59669.53;5071335;28;20086;-64
2022/10/03 03:53:14;;;;;;;35.92;27.17;;;;;;;-142.37;100.00;59669.53;5070531;28;20036;-65
2022/10/03 03:56:17;;;;;;;38.80;27.25;;;;;;;-142.37;100.00;59669.53;5110238;28;20079;-66
2022/10/03 03:59:07;;;;;;;41.60;28.80;;;;;;;-142.37;100.00;59669.53;5098263;28;20040;-65
2022/10/03 04:01:55;;;;;;;43.75;28.83;;;;;;;-142.37;100.00;59669.53;5098272;28;20532;-65
2022/10/03 04:04:44;;;;;;;48.83;30.88;;;;;;;-142.37;100.00;59669.53;5084531;28;20071;-64
2022/10/03 04:07:24;;;;;;;44.35;28.95;;;;;;;-142.37;100.00;59669.53;5115837;28;20024;-65
2022/10/03 04:10:28;;;;;;;50.78;30.65;;;;;;;-142.37;100.00;59669.53;5116020;28;20023;-63
2022/10/03 04:13:22;;;;;;;42.38;28.02;;;;;;;-142.37;100.00;59669.53;5116442;28;20035;-66
2022/10/03 04:16:03;;;;;;;38.13;28.30;;;;;;;-142.37;100.00;59669.53;5115989;28;20031;-65
2022/10/03 04:18:58;;;;;;;41.58;28.63;;;;;;;-142.37;100.00;59669.53;5116151;28;20031;-64
2022/10/03 04:21:46;;;;;;;49.13;29.48;;;;;;;-142.37;100.00;59669.53;5097288;28;20023;-66
2022/10/03 04:24:39;;;;;;;42.13;28.30;;;;;;;-142.37;100.00;59669.53;5115913;28;20035;-64
2022/10/03 04:27:17;;;;;;;47.80;30.00;;;;;;;-142.37;100.00;59669.53;5115602;28;20030;-65
2022/10/03 04:29:52;;;;;;;41.20;28.40;;;;;;;-142.37;100.00;59669.53;5097371;28;20464;-66
2022/10/03 04:32:26;;;;;;;47.13;30.35;;;;;;;-142.37;100.00;59669.53;5097306;28;20054;-66
2022/10/03 04:35:15;;;;;;;55.35;32.35;;;;;;;-142.37;100.00;59669.53;5115795;28;20039;-65
2022/10/03 04:38:11;;;;;;;46.35;28.92;;;;;;;-142.37;100.00;59669.53;5097153;28;20476;-65
2022/10/03 04:41:01;;;;;;;47.80;30.77;;;;;;;-142.37;100.00;59669.53;5097371;28;20376;-64
2022/10/03 04:43:43;;;;;;;47.25;29.83;;;;;;;-142.37;100.00;59669.53;5097304;28;20035;-65
2022/10/03 04:46:55;;;;;;;47.58;30.65;;;;;;;-142.37;100.00;59669.53;5097184;28;20462;-64
2022/10/03 04:49:45;;;;;;;50.47;30.55;;;;;;;-142.37;100.00;59669.53;5096002;28;20431;-66
2022/10/03 04:52:32;;;;;;;42.83;28.63;;;;;;;-142.37;100.00;59669.53;5097074;28;20035;-65
2022/10/03 04:55:03;;;;;;;43.95;28.83;;;;;;;-142.37;100.00;59669.53;5114681;28;20058;-64
2022/10/03 04:57:50;;;;;;;45.58;30.42;;;;;;;-142.37;100.00;59669.53;5095505;28;20028;-65
2022/10/03 05:00:28;;;;;;;51.60;30.10;;;;;;;-142.37;100.00;59669.53;5095343;28;20494;-65
2022/10/03 05:03:06;;;;;;;45.90;29.95;;;;;;;-142.37;100.00;59669.53;5114023;28;20020;-64
2022/10/03 05:05:40;;;;;;;48.97;29.60;;;;;;;-142.37;100.00;59669.53;5095257;28;20020;-65
2022/10/03 05:08:19;;;;;;;44.08;28.63;;;;;;;-142.37;100.00;59669.53;5094291;28;20434;-66
2022/10/03 05:11:26;;;;;;;43.17;29.58;;;;;;;-142.37;100.00;59669.53;5095295;28;20027;-65
2022/10/03 05:14:15;;;;;;;46.00;28.65;;;;;;;-142.37;100.00;59669.53;5094942;28;20031;-64
2022/10/03 05:16:55;;;;;;;44.40;28.80;;;;;;;-142.37;100.00;59669.53;5113888;28;20028;-64
2022/10/03 05:19:40;;;;;;;43.60;27.13;;;;;;;-142.37;100.00;59669.53;5113485;28;20082;-67
2022/10/03 05:22:24;;;;;;;49.92;30.65;;;;;;;-142.37;100.00;59669.53;5094307;28;20410;-65
2022/10/03 05:25:12;;;;;;;41.50;27.15;;;;;;;-142.37;100.00;59669.53;5093986;28;20558;-65
2022/10/03 05:28:17;;;;;;;44.38;27.27;;;;;;;-142.37;100.00;59669.53;5113474;28;20068;-66
2022/10/03 05:30:58;;;;;;;38.22;26.00;;;;;;;-142.37;100.00;59669.53;5064084;28;20034;-65
2022/10/03 05:33:53;;;;;;;37.78;26.35;;;;;;;-142.37;100.00;59669.53;5093951;28;20476;-64
2022/10/03 05:37:05;;;;;;;38.75;25.60;;;;;;;-142.37;100.00;59669.53;5094691;28;20046;-64
2022/10/03 05:40:05;;;;;;;35.60;23.80;;;;;;;-142.37;100.00;59669.53;5093964;28;20115;-66
2022/10/03 05:42:36;;;;;;;32.72;24.40;;;;;;;-142.37;100.00;59669.53;5080345;28;20036;-65
2022/10/03 05:45:34;;;;;;;33.85;24.77;;;;;;;-142.37;100.00;59669.53;5093676;28;20019;-66
2022/10/03 05:48:29;;;;;;;32.72;24.58;;;;;;;-142.37;100.00;59669.53;5093726;28;20028;-65
2022/10/03 05:51:35;;;;;;;33.80;23.58;;;;;;;-142.37;100.00;59669.53;5112107;28;20111;-65
2022/10/03 05:54:29;;;;;;;36.47;25.33;;;;;;;-142.37;100.00;59669.53;5062536;28;1388796;-65
2022/10/03 05:57:07;;;;;;;31.13;23.17;;;;;;;-142.37;100.00;59669.53;5112581;28;20555;-66
2022/10/03 06:00:11;;;;;;;30.67;22.20;;;;;;;-142.37;100.00;59669.53;5112961;28;20452;-66
2022/10/03 06:02:56;;;;;;;32.50;21.90;;;;;;;-142.37;100.00;59669.53;5113293;28;20492;-65
2022/10/03 06:05:55;;;;;;;31.25;22.73;;;;;;;-142.37;100.00;59669.53;5112235;28;20110;-66
2022/10/03 06:08:40;;;;;;;29.27;20.65;;;;;;;-142.37;100.00;59669.53;5093087;28;20058;-64
2022/10/03 06:11:44;;;;;;;34.83;21.48;;;;;;;-142.37;100.00;59669.53;5112001;28;20027;-65
2022/10/03 06:14:34;;;;;;;27.27;20.52;;;;;;;-142.37;100.00;59669.53;5112732;28;20023;-66
2022/10/03 06:17:03;;;;;;;28.02;21.63;;;;;;;-142.37;100.00;59669.53;5111955;28;20051;-65
2022/10/03 06:20:10;;;;;;;27.73;21.35;;;;;;;-142.37;100.00;59669.53;5092702;28;20458;-66
2022/10/03 06:23:03;;;;;;;24.65;20.13;;;;;;;-142.37;100.00;59669.53;5045363;28;20411;-66
2022/10/03 06:26:01;;;;;;;23.52;18.95;;;;;;;-142.37;100.00;59669.53;5094414;28;20054;-66
2022/10/03 06:28:57;;;;;;;23.55;19.05;;;;;;;-142.37;100.00;59669.53;5112078;28;20487;-66
2022/10/03 06:31:35;;;;;;;28.85;20.63;;;;;;;-142.37;100.00;59669.53;5093543;28;20027;-66
2022/10/03 06:34:28;;;;;;;26.50;19.65;;;;;;;-142.37;100.00;59669.53;5093764;28;20028;-68
2022/10/03 06:37:09;;;;;;;24.77;20.23;;;;;;;-142.37;100.00;59669.53;5112115;28;20023;-67
2022/10/03 06:39:54;;;;;;;24.20;18.77;;;;;;;-142.37;100.00;59669.53;5111312;28;20032;-67
2022/10/03 06:42:35;;;;;;;23.00;19.25;;;;;;;-142.37;100.00;59669.53;5112215;28;20122;-65
2022/10/03 06:45:08;;;;;;;24.95;18.90;;;;;;;-142.37;100.00;59669.53;5111793;28;20072;-65
2022/10/03 06:47:58;;;;;;;23.25;20.13;;;;;;;-142.37;100.00;59669.53;5093125;28;20037;-66
2022/10/03 06:50:50;;;;;;;23.65;17.70;;;;;;;-142.37;100.00;59669.53;5112138;28;20024;-67
2022/10/03 06:53:34;;;;;;;21.48;18.95;;;;;;;-142.37;100.00;59669.53;5112020;28;20444;-67
2022/10/03 06:56:09;;;;;;;19.08;16.75;;;;;;;-142.37;100.00;59669.53;5111073;28;20055;-67
2022/10/03 06:58:50;;;;;;;20.75;17.38;;;;;;;-142.37;100.00;59669.53;5093813;28;20095;-67
2022/10/03 07:01:25;;;;;;;20.70;17.83;;;;;;;-142.37;100.00;59669.53;5093824;28;20114;-65
2022/10/03 07:04:26;;;;;;;21.83;18.17;;;;;;;-142.37;100.00;59669.53;5111824;28;20540;-66
2022/10/03 07:07:18;;;;;;;19.30;15.13;;;;;;;-142.37;100.00;59669.53;5112616;28;20379;-67
2022/10/03 07:10:16;;;;;;;18.15;16.25;;;;;;;-142.37;100.00;59669.53;5098020;28;20044;-67
2022/10/03 07:13:19;;;;;;;23.20;18.10;;;;;;;-142.37;100.00;59669.53;5093470;28;20023;-65
2022/10/03 07:15:44;;;;;;;17.73;15.82;;;;;;;-142.37;100.00;59669.53;5112451;28;20107;-64
2022/10/03 07:18:32;;;;;;;19.80;17.70;;;;;;;-142.37;100.00;59669.53;5112530;28;20110;-67
2022/10/03 07:21:23;;;;;;;21.30;17.70;;;;;;;-142.37;100.00;59669.53;5093454;28;20118;-67
2022/10/03 07:24:09;;;;;;;22.90;16.05;;;;;;;-142.37;100.00;59669.53;5092941;28;20114;-66
2022/10/03 07:27:07;;;;;;;17.52;15.38;;;;;;;-142.37;100.00;59669.53;5093637;28;20503;-67
2022/10/03 07:29:55;;;;;;;22.00;16.70;;;;;;;-142.37;100.00;59669.53;5093379;28;20050;-67
2022/10/03 07:33:17;;;;;;;19.42;15.98;;;;;;;-142.37;100.00;59669.53;5092622;28;20046;-66
2022/10/03 07:38:57;;;;;;;18.30;15.43;;;;;;;-142.37;100.00;59669.53;5111955;28;20092;-67
2022/10/03 07:41:46;;;;;;;107.30;79.50;;;;;;;-142.37;100.00;59669.53;5093351;28;20551;-67
2022/10/03 07:44:50;;;;;;;21.45;17.02;;;;;;;-142.37;100.00;59669.53;5093240;28;20024;-67
2022/10/03 07:47:25;;;;;;;18.15;15.90;;;;;;;-142.37;100.00;59669.53;5093266;28;20035;-68
2022/10/03 07:49:59;;;;;;;17.67;14.18;;;;;;;-142.37;100.00;59669.53;5093281;28;20035;-67
2022/10/03 07:52:52;;;;;;;19.58;14.38;;;;;;;-142.37;100.00;59669.53;5093088;28;20032;-67
2022/10/03 07:55:46;;;;;;;20.50;14.50;;;;;;;-142.37;100.00;59669.53;5093093;28;20080;-67
2022/10/03 07:58:29;;;;;;;14.90;13.43;;;;;;;-142.37;100.00;59669.53;5093334;28;20047;-66
2022/10/03 08:01:17;;;;;;;15.23;13.65;;;;;;;-142.37;100.00;59669.53;5093541;28;20028;-66
2022/10/03 08:04:33;;;;;;;15.90;14.23;;;;;;;-142.37;100.00;59669.53;5093785;28;20101;-68
2022/10/03 08:07:11;;;;;;;16.35;13.18;;;;;;;-142.37;100.00;59669.53;5051066;28;20044;-67
2022/10/03 08:10:25;;;;;;;13.48;11.63;;;;;;;-142.37;100.00;59669.53;5111995;28;20024;-68
2022/10/03 08:12:57;;;;;;;19.42;12.20;;;;;;;-142.37;100.00;59669.53;5070364;28;20059;-68
2022/10/03 08:15:25;;;;;;;14.63;12.18;;;;;;;-142.37;100.00;59669.53;5111747;28;20058;-67
2022/10/03 08:18:08;;;;;;;14.48;12.45;;;;;;;-142.37;100.00;59669.53;5093366;28;20103;-68
2022/10/03 08:20:58;;;;;;;18.15;13.13;;;;;;;-142.37;100.00;59669.53;5111155;28;20079;-70
2022/10/03 08:24:15;;;;;;;14.25;12.85;;;;;;;-142.37;100.00;59669.53;5111213;28;20020;-68
2022/10/03 08:27:13;;;;;;;15.43;13.00;;;;;;;-142.37;100.00;59669.53;5086541;28;20047;-71
2022/10/03 08:30:24;;;;;;;16.40;12.80;;;;;;;-142.37;100.00;59669.53;5070851;28;20048;-70
2022/10/03 08:33:03;;;;;;;15.32;12.13;;;;;;;-142.37;100.00;59669.53;5089802;28;20476;-70
2022/10/03 08:36:22;;;;;;;13.15;11.75;;;;;;;-142.37;100.00;59669.53;5093274;28;20028;-71
2022/10/03 08:38:52;;;;;;;14.00;12.57;;;;;;;-142.37;100.00;59669.53;5111502;28;20364;-70
2022/10/03 08:42:07;;;;;;;12.57;10.85;;;;;;;-142.37;100.00;59669.53;5111681;28;20094;-71
2022/10/03 08:44:45;;;;;;;14.57;12.98;;;;;;;-142.37;100.00;59669.53;5096821;28;20024;-71
2022/10/03 08:47:25;;;;;;;14.45;12.18;;;;;;;-142.37;100.00;59669.53;5114848;28;20716;-70
2022/10/03 08:50:12;;;;;;;14.25;12.90;;;;;;;-142.37;100.00;59669.53;5096725;28;20031;-71
2022/10/03 08:52:38;;;;;;;15.52;12.23;;;;;;;-142.37;100.00;59669.53;5115077;28;20039;-70
2022/10/03 08:55:36;;;;;;;13.18;11.65;;;;;;;-142.37;100.00;59669.53;5080653;28;20044;-70
2022/10/03 08:58:07;;;;;;;11.05;9.95;;;;;;;-142.37;100.00;59669.53;5074119;28;20029;-70
2022/10/03 09:01:04;;;;;;;13.32;11.80;;;;;;;-142.37;100.00;59669.53;5072883;28;20137;-69
2022/10/03 09:03:32;;;;;;;12.35;11.02;;;;;;;-142.37;100.00;59669.53;5074390;28;20032;-70
2022/10/03 09:06:01;;;;;;;15.70;10.27;;;;;;;-142.37;100.00;59669.53;5073798;28;20477;-68
2022/10/03 09:08:43;;;;;;;11.55;10.15;;;;;;;-142.37;100.00;59669.53;5072316;28;20055;-69
2022/10/03 09:11:34;;;;;;;10.93;9.85;;;;;;;-142.37;100.00;59669.53;5072564;28;20567;-68
2022/10/03 09:14:26;;;;;;;13.30;11.77;;;;;;;-142.37;100.00;59669.53;5071858;28;20369;-69
2022/10/03 09:17:06;;;;;;;13.30;9.35;;;;;;;-142.37;100.00;59669.53;5074447;28;20089;-70
2022/10/03 09:19:38;;;;;;;10.43;9.43;;;;;;;-142.37;100.00;59669.53;5071957;28;20083;-68
2022/10/03 09:22:46;;;;;;;12.63;9.80;;;;;;;-142.37;100.00;59669.53;5071507;28;20114;-68
2022/10/03 09:25:35;;;;;;;14.13;10.27;;;;;;;-142.37;100.00;59669.53;5060110;28;20055;-69
2022/10/03 09:28:38;;;;;;;11.63;9.50;;;;;;;-142.37;100.00;59669.53;5073371;28;20043;-69
2022/10/03 09:31:15;;;;;;;11.10;9.63;;;;;;;-142.37;100.00;59669.53;5071736;28;20047;-70
2022/10/03 09:34:21;;;;;;;14.68;10.15;;;;;;;-142.37;100.00;59669.53;5072392;28;20070;-68
2022/10/03 09:37:16;;;;;;;10.27;8.82;;;;;;;-142.37;100.00;59669.53;5071761;28;20657;-69
2022/10/03 09:40:19;;;;;;;12.00;8.88;;;;;;;-142.37;100.00;59669.53;5063781;28;20127;-69
2022/10/03 09:43:08;;;;;;;10.68;9.55;;;;;;;-142.37;100.00;59669.53;5073593;28;20047;-68
2022/10/03 09:46:04;;;;;;;11.00;9.80;;;;;;;-142.37;100.00;59669.53;5071807;28;20115;-68
2022/10/03 09:48:49;;;;;;;10.80;9.23;;;;;;;-142.37;100.00;59669.53;5071587;28;20036;-67
2022/10/03 09:51:56;;;;;;;11.73;10.07;;;;;;;-142.37;100.00;59669.53;5071449;28;20480;-69
2022/10/03 09:54:36;;;;;;;11.48;9.65;;;;;;;-142.37;100.00;59669.53;5083670;28;20468;-68
2022/10/03 09:57:11;;;;;;;13.90;10.50;;;;;;;-142.37;100.00;59669.53;5112489;28;20023;-68
2022/10/03 09:59:39;;;;;;;13.18;10.88;;;;;;;-142.37;100.00;59669.53;5113271;28;20031;-68
2022/10/03 10:02:26;;;;;;;20.05;17.80;;;;;;;-142.37;100.00;59669.53;5094202;28;20074;-69
2022/10/03 10:05:11;;;;;;;12.38;10.90;;;;;;;-142.37;100.00;59669.53;5094152;28;20649;-72
2022/10/03 10:08:08;;;;;;;11.40;10.20;;;;;;;-142.37;100.00;59669.53;5094178;28;20032;-69
2022/10/03 10:11:00;;;;;;;16.10;10.88;;;;;;;-142.37;100.00;59669.53;5113066;28;20067;-69
2022/10/03 10:13:44;;;;;;;12.63;10.30;;;;;;;-142.37;100.00;59669.53;5094545;28;20154;-69
2022/10/03 10:16:36;;;;;;;11.50;9.50;;;;;;;-142.37;100.00;59669.53;5094087;28;20031;-69
2022/10/03 10:19:39;;;;;;;12.02;10.35;;;;;;;-142.37;100.00;59669.53;5094342;28;20391;-68
2022/10/03 10:22:48;;;;;;;12.48;11.27;;;;;;;-142.37;100.00;59669.53;5094631;28;20030;-69
2022/10/03 10:25:30;;;;;;;11.23;10.15;;;;;;;-142.37;100.00;59669.53;5094417;28;20043;-70
2022/10/03 10:28:21;;;;;;;11.73;10.32;;;;;;;-142.37;100.00;59669.53;5113248;28;20109;-69
2022/10/03 10:31:09;;;;;;;12.45;10.50;;;;;;;-142.37;100.00;59669.53;5112932;28;20035;-69
2022/10/03 10:33:43;;;;;;;15.52;11.32;;;;;;;-142.37;100.00;59669.53;5112659;28;20027;-70
2022/10/03 10:36:24;;;;;;;;;;;;;;;-142.37;100.00;59669.53;5094466;28;20066;-69
2022/10/03 10:39:27;;;;;;;15.32;12.60;;;;;;;-142.37;100.00;59669.53;5093890;28;19934;-68
2022/10/03 10:42:09;;;;;;;13.38;11.98;;;;;;;-142.37;100.00;59669.53;5112513;28;20035;-70
2022/10/03 10:44:54;;;;;;;17.50;11.63;;;;;;;-142.37;100.00;59669.53;5112020;28;20028;-69
2022/10/03 10:47:41;;;;;;;12.93;11.45;;;;;;;-142.37;100.00;59669.53;5112113;28;20440;-69
2022/10/03 10:50:25;;;;;;;15.65;12.32;;;;;;;-142.37;100.00;59669.53;5112193;28;20107;-68
2022/10/03 10:53:28;;;;;;;17.57;12.63;;;;;;;-142.37;100.00;59669.53;5093663;28;20451;-70
2022/10/03 10:56:18;;;;;;;16.90;13.25;;;;;;;-142.37;100.00;59669.53;5093957;28;20564;-70
2022/10/03 10:59:02;;;;;;;21.58;13.20;;;;;;;-142.37;100.00;59669.53;5112362;28;20495;-69
2022/10/03 11:02:20;;;;;;;15.32;13.73;;;;;;;-142.37;100.00;59669.53;5112534;28;20038;-69
2022/10/03 11:05:13;;;;;;;15.15;12.88;;;;;;;-142.37;100.00;59669.53;5112437;28;20074;-69
2022/10/03 11:08:33;;;;;;;19.10;15.77;;;;;;;-142.37;100.00;59669.53;5112196;28;20027;-70
2022/10/03 11:11:48;;;;;;;15.27;13.70;;;;;;;-142.37;100.00;59669.53;5093688;28;20036;-69
2022/10/03 11:14:51;;;;;;;13.02;11.60;;;;;;;-142.37;100.00;59669.53;5093480;28;20031;-69
2022/10/03 11:17:47;;;;;;;13.98;12.35;;;;;;;-142.37;100.00;59669.53;5111917;28;20039;-69
2022/10/03 11:20:30;;;;;;;20.27;14.52;;;;;;;-142.37;100.00;59669.53;5111979;28;20036;-69
2022/10/03 11:23:33;;;;;;;19.25;14.20;;;;;;;-142.37;100.00;59669.53;5093826;28;20051;-68
2022/10/03 11:26:17;;;;;;;13.90;12.60;;;;;;;-142.37;100.00;59669.53;5093782;28;20468;-69
2022/10/03 11:29:20;;;;;;;17.85;13.63;;;;;;;-142.37;100.00;59669.53;5093280;28;20027;-71
2022/10/03 11:32:23;;;;;;;13.30;11.95;;;;;;;-142.37;100.00;59669.53;5111463;28;20089;-70
2022/10/03 11:35:20;;;;;;;14.02;12.48;;;;;;;-142.37;100.00;59669.53;5093804;28;20077;-69
2022/10/03 11:37:49;;;;;;;17.15;11.88;;;;;;;-142.37;100.00;59669.53;5093900;28;20164;-69
2022/10/03 11:40:34;;;;;;;13.18;11.82;;;;;;;-142.37;100.00;59669.53;5111914;28;20031;-68
2022/10/03 11:43:21;;;;;;;14.45;12.57;;;;;;;-142.37;100.00;59669.53;5111296;28;20027;-69
2022/10/03 11:46:19;;;;;;;14.55;13.00;;;;;;;-142.37;100.00;59669.53;5093099;28;20039;-69
2022/10/03 11:48:51;;;;;;;14.80;12.00;;;;;;;-142.37;100.00;59669.53;5111516;28;20134;-69
2022/10/03 11:51:41;;;;;;;16.17;13.68;;;;;;;-142.37;100.00;59669.53;5111714;28;20030;-69
2022/10/03 11:54:19;;;;;;;15.70;14.10;;;;;;;-142.37;100.00;59669.53;5111323;28;20120;-70
2022/10/03 11:56:49;;;;;;;17.80;14.38;;;;;;;-142.37;100.00;59669.53;5111391;28;20055;-69
2022/10/03 11:59:44;;;;;;;18.73;15.63;;;;;;;-142.37;100.00;59669.53;5110872;28;20031;-68
2022/10/03 12:02:19;;;;;;;19.93;16.23;;;;;;;-142.37;100.00;59669.53;5093133;28;20453;-69
2022/10/03 12:05:02;;;;;;;18.40;16.00;;;;;;;-142.37;100.00;59669.53;5111608;28;20449;-69
2022/10/03 12:11:24;;;;;;;17.33;13.52;;;;;;;-142.37;100.00;59669.53;5013211;28;20049;-70
2022/10/03 12:14:02;;;;;;;15.93;14.32;;;;;;;-142.37;100.00;59669.53;5094771;28;20038;-69
2022/10/03 12:16:40;;;;;;;15.18;13.57;;;;;;;-142.37;100.00;59669.53;5093358;28;20488;-70
2022/10/03 12:19:29;;;;;;;16.30;13.75;;;;;;;-142.37;100.00;59669.53;5096117;28;20080;-71
2022/10/03 12:22:10;;;;;;;14.35;13.05;;;;;;;-142.37;100.00;59669.53;5115925;28;20028;-70
2022/10/03 12:24:41;;;;;;;15.55;13.75;;;;;;;-142.37;100.00;59669.53;5097033;28;20052;-69
2022/10/03 12:27:25;;;;;;;16.05;12.98;;;;;;;-142.37;100.00;59669.53;5096683;28;20031;-68
2022/10/03 12:30:10;;;;;;;19.63;14.33;;;;;;;-142.37;100.00;59669.53;5115425;28;20024;-69
2022/10/03 12:32:57;;;;;;;15.48;13.90;;;;;;;-142.37;100.00;59669.53;5097038;28;20502;-69
2022/10/03 12:35:35;;;;;;;15.48;13.93;;;;;;;-142.37;100.00;59669.53;5115301;28;20336;-67
2022/10/03 12:38:12;;;;;;;15.20;13.60;;;;;;;-142.37;100.00;59669.53;5096851;28;20076;-69